Axton, Virginia
Current Conditions -  °F | °C
As of 4:35 AM on Wednesday 26 Nov 2014 (Local Time) from KMTV Reporting Station
Moderate Rain Moderate Rain  
Wind Chill: 40°   Ceiling: 3000
Heat Index: 43°   Visibility: 4mi
Dew Point: 43°   Wind: 5mph
Humidity: 100%   Direction: 40°NE
Pressure: 30.02"   Gusts: NA
Location:  36.66°N, 79.71°W
Report Text: KMTV 260935Z AUTO 04004KT 4SM RA SCT008 BKN030 OVC043 06/06 A3002 RMK AO2 P0010 T00590059
Loading
Personal Weather Stations






























Interactive Weather Map New forecast layout! Learn more

10-Day Weather Forecast

Advertisements
Track Severe Weather on mobile